JP Observations

RJTT 222018Z 06014KT 8000 FEW013 BKN020 16/14 Q1019 RMK 1SC013 6SC020 A3012 RJAA 222000Z 04009KT 4500 BR FEW007 SCT008 BKN009 15/13 Q1020 NOSIG RJAA 222000Z 04009KT 4500 BR FEW007 SCT008 BKN009 15/13 Q1020 NOSIG RMK 1ST007 4ST008 7ST009 A3012 RJAH 222000Z 04014KT 5000 BR FEW010 BKN015 BKN230 14/11 Q1019 RJAW 222000Z 11009KT 9999 SCT020 BKN040 22/15 Q1016 RMK 3CU020 6SC040 A3003 RJBB 222000Z AUTO 13005KT 9999 NSC 17/13 Q1018 NOSIG RJCC 222000Z 14002KT 9999 R19R/P2000N R19L/P2000N PRFG FEW010 BKN/// 00/00 Q1026 RJCC 222000Z 14002KT 9999 R19R/P2000N R19L/P2000N PRFG FEW010 BKN/// 00/00 Q1026 RMK 1ST010 A3032 1500E FG NE-SE RJFF 222000Z AUTO VRB01KT 9999 OVC013 18/14 Q1016 RMK A3003 RJFR 222000Z 05006KT 9999 FEW030 BKN070 16/14 Q1017 RJGG 222000Z 13006KT 6000 BR NSC 16/15 Q1018 NOSIG RJNK 222000Z 07004KT 7000 SCT008 BKN010 15/13 Q1019 RJOH 222000Z 03004KT 6000 FEW006 BKN008 16/13 Q1019 RJOI 221955Z 31003KT 9999 SCT030 BKN210 17/12 A3007 RMK SLP181 T01670122 RJOO 222000Z VRB02KT 9999 FEW030 14/09 Q1018 RJOO 222000Z VRB02KT 9999 FEW030 14/09 Q1018 RMK 1CU030 A3008 RJTT 222000Z 05015KT 8000 FEW010 BKN013 BKN020 16/14 Q1019 TEMPO 4000 BR FEW005 BKN008 RJTT 222000Z 05015KT 8000 FEW010 BKN013 BKN020 16/14 Q1019 TEMPO 4000 BR FEW005BKN008 RMK 1ST010 5SC013 7SC020 A3011 RJTY 221956Z AUTO 05005KT 5SM BR OVC007 15/14 A3016 RMK AO2 CIG 006 RWY18 SLP213 T01500135 FZRANO $ ROAH 222000Z 13006KT 9999 FEW006 BKN012 23/21 Q1013 RMK 2ST006 5CU012 A2994 RODN 221956Z AUTO 14007KT 10SM FEW025 23/21 A2995 RMK AO2 SLP148 T02260210 $ ROYN 222000Z AUTO 16017KT 9999 FEW009 SCT010 BKN022 //////TCU 24/23 Q1011 ROTM 221956Z 14007KT 9999 BKN006 OVC013 22/13 A2997 RMK SLP133 STNPR29760 T02170133